Denver, Colorado
Traffic Map
Current Weather Conditions
Denver, Colorado
Clear
Clear
20°
Feels Like: 20°
Wind Chill: 20° Ceiling: Unl
Heat Index: 20° Visibility: 10mi
Dew Point: Wind: 0mph
Humidity: 48% Direction: ° ()
Pressure: 30.13in Gusts: 0mph
Raw Report DataKBKF 021558Z 00000KT 10SM CLR 20/08 A3013 RMK AO2A SLP139 T01970083
Traffic Incident Summary
Active as of:
Severity:
Category:
InformationThere was an issue retrieving the traffic information for this location. Please try a different location or try again shortly.
Advertisements
Track Severe Weather on mobile